Time;durP1;ratioP1;P1;durP2;ratioP2;P2;SDS_P1;SDS_P2;PMS_P1;PMS_P2;Temp;Humidity;BMP_temperature;BMP_pressure;BME280_temperature;BME280_humidity;BME280_pressure;Samples;Min_cycle;Max_cycle;Signal;HPM_P1;HPM_P2
2022/08/13 00:01:56;;;;;;;2.20;2.00;;;20.40;99.90;;;;;;5006985;28;20351;-63
2022/08/13 00:04:26;;;;;;;3.53;2.50;;;20.40;99.90;;;;;;4985750;28;20771;-63
2022/08/13 00:07:07;;;;;;;3.50;2.10;;;20.40;99.90;;;;;;5010504;28;20793;-63
2022/08/13 00:09:35;;;;;;;4.57;2.10;;;20.50;99.90;;;;;;5013854;28;20220;-62
2022/08/13 00:14:48;;;;;;;3.42;2.30;;;20.50;99.90;;;;;;5008268;28;20311;-63
2022/08/13 00:17:17;;;;;;;2.28;2.08;;;20.40;99.90;;;;;;5012862;28;20250;-63
2022/08/13 00:19:49;;;;;;;6.30;2.13;;;20.60;99.90;;;;;;4988867;28;20213;-63
2022/08/13 00:22:18;;;;;;;7.97;1.90;;;20.40;99.90;;;;;;5011601;28;20194;-63
2022/08/13 00:24:45;;;;;;;4.80;2.13;;;20.30;99.90;;;;;;5009312;28;20217;-63
2022/08/13 00:27:12;;;;;;;3.00;2.47;;;20.30;99.90;;;;;;5014154;28;20285;-63
2022/08/13 00:29:39;;;;;;;4.57;2.10;;;20.30;99.90;;;;;;5012246;28;20225;-61
2022/08/13 00:32:06;;;;;;;3.22;2.25;;;20.30;99.90;;;;;;5007630;28;20418;-62
2022/08/13 00:34:33;;;;;;;3.08;1.92;;;20.30;99.90;;;;;;4993080;28;20661;-63
2022/08/13 00:37:01;;;;;;;2.47;2.28;;;20.20;99.90;;;;;;5012167;28;20213;-63
2022/08/13 00:39:28;;;;;;;2.70;2.30;;;20.30;99.90;;;;;;5013647;28;20308;-63
2022/08/13 00:41:55;;;;;;;2.95;2.20;;;20.30;99.90;;;;;;5011230;28;20206;-63
2022/08/13 00:44:23;;;;;;;2.88;2.17;;;20.30;99.90;;;;;;5013783;28;20202;-63
2022/08/13 00:48:41;;;;;;;4.80;2.20;;;20.30;99.90;;;;;;5009654;28;20302;-63
2022/08/13 00:49:36;;;;;;;7.32;1.98;;;20.30;99.90;;;;;;5000359;28;20230;-63
2022/08/13 00:52:10;;;;;;;3.67;2.60;;;20.20;99.90;;;;;;5003012;28;20553;-62
2022/08/13 00:54:40;;;;;;;4.90;2.40;;;20.20;99.90;;;;;;5011395;28;20305;-63
2022/08/13 00:57:07;;;;;;;2.95;1.98;;;20.10;99.90;;;;;;5010997;28;20202;-63
2022/08/13 00:59:34;;;;;;;5.57;2.13;;;20.20;99.90;;;;;;5007566;28;20194;-62
2022/08/13 01:02:04;;;;;;;2.58;2.08;;;20.10;99.90;;;;;;5001518;28;20293;-62
2022/08/13 01:04:32;;;;;;;3.50;2.20;;;20.30;99.90;;;;;;5009750;28;20197;-62
2022/08/13 01:07:04;;;;;;;9.98;2.22;;;20.10;99.90;;;;;;4987333;28;20576;-62
2022/08/13 01:09:32;;;;;;;4.38;2.08;;;;;;;;;;5009674;28;20825;-63
2022/08/13 01:12:00;;;;;;;2.55;2.05;;;20.10;99.90;;;;;;5013387;28;20198;-63
2022/08/13 01:14:32;;;;;;;3.13;2.20;;;20.10;99.90;;;;;;5010265;28;20671;-63
2022/08/13 01:17:01;;;;;;;4.80;2.05;;;20.10;99.90;;;;;;5012635;28;20202;-63
2022/08/13 01:19:31;;;;;;;2.20;2.00;;;19.90;99.90;;;;;;5010594;28;20199;-63
2022/08/13 01:22:00;;;;;;;4.80;2.20;;;19.70;99.90;;;;;;4994936;28;20278;-63
2022/08/13 01:24:28;;;;;;;5.43;2.28;;;19.60;1.00;;;;;;5010741;28;20198;-61
2022/08/13 01:26:57;;;;;;;2.38;2.17;;;19.60;1.00;;;;;;5009638;28;20202;-62
2022/08/13 01:29:25;;;;;;;18.83;2.55;;;19.50;1.00;;;;;;5007129;28;20197;-63
2022/08/13 01:31:52;;;;;;;6.70;2.33;;;19.30;1.00;;;;;;5011140;28;20198;-62
2022/08/13 01:34:22;;;;;;;2.33;2.13;;;19.40;1.00;;;;;;5010876;28;20202;-62
2022/08/13 01:36:49;;;;;;;3.22;2.53;;;19.30;1.00;;;;;;4991420;28;20880;-63
2022/08/13 01:39:17;;;;;;;2.40;2.20;;;19.40;1.00;;;;;;5012557;28;20194;-63
2022/08/13 01:41:45;;;;;;;4.07;2.38;;;19.20;1.00;;;;;;5009589;28;20404;-63
2022/08/13 01:44:14;;;;;;;3.38;2.22;;;19.20;1.00;;;;;;5013594;28;20616;-62
2022/08/13 01:52:07;;;;;;;5.10;2.20;;;19.10;1.00;;;;;;5011501;28;20317;-62
2022/08/13 01:54:37;;;;;;;2.58;2.38;;;17.70;1.00;;;;;;4989111;28;20411;-62
2022/08/13 01:57:06;;;;;;;2.95;2.05;;;19.10;1.00;;;;;;5013604;28;20201;-62
2022/08/13 01:59:35;;;;;;;3.17;2.47;;;22.30;24.00;;;;;;5008902;28;20202;-64
2022/08/13 02:02:03;;;;;;;2.65;2.30;;;19.10;1.00;;;;;;5014355;28;20206;-63
2022/08/13 02:04:32;;;;;;;6.72;2.33;;;19.00;85.10;;;;;;5013940;28;20285;-63
2022/08/13 02:07:00;;;;;;;3.42;2.85;;;19.10;27.30;;;;;;5011887;28;20251;-62
2022/08/13 02:09:27;;;;;;;4.30;2.35;;;19.10;1.00;;;;;;4992673;28;20203;-63
2022/08/13 02:11:55;;;;;;;4.35;2.47;;;19.10;1.00;;;;;;5014560;28;20695;-61
2022/08/13 02:14:22;;;;;;;3.72;2.53;;;19.70;6.40;;;;;;5014344;28;20691;-62
2022/08/13 02:16:50;;;;;;;5.43;2.17;;;19.10;1.00;;;;;;5014356;28;20314;-62
2022/08/13 02:19:17;;;;;;;2.30;2.10;;;19.20;1.00;;;;;;5015158;28;20205;-62
2022/08/13 02:21:44;;;;;;;3.42;2.10;;;19.10;1.00;;;;;;5015212;28;20361;-62
2022/08/13 02:24:14;;;;;;;4.47;2.35;;;19.20;1.00;;;;;;5014592;28;20911;-62
2022/08/13 02:26:43;;;;;;;3.58;3.17;;;19.30;1.00;;;;;;4994804;28;20280;-63
2022/08/13 02:29:13;;;;;;;4.43;2.25;;;19.30;1.00;;;;;;5014540;28;21477;-62
2022/08/13 02:31:42;;;;;;;3.70;2.42;;;19.00;1.00;;;;;;5006480;28;20468;-63
2022/08/13 02:34:09;;;;;;;4.75;2.25;;;19.30;1.00;;;;;;5015506;28;20202;-62
2022/08/13 02:36:37;;;;;;;2.40;2.15;;;19.30;1.00;;;;;;5004320;28;20414;-62
2022/08/13 02:39:06;;;;;;;2.58;2.38;;;19.20;1.00;;;;;;5011987;28;20194;-62
2022/08/13 02:41:42;;;;;;;7.10;2.42;;;19.20;1.00;;;;;;4992514;28;20683;-62
2022/08/13 02:44:13;;;;;;;3.17;2.30;;;19.10;1.00;;;;;;5010906;28;20198;-62
2022/08/13 02:46:40;;;;;;;3.90;2.28;;;19.10;1.00;;;;;;5012543;28;20398;-62
2022/08/13 02:49:07;;;;;;;4.28;2.25;;;19.10;1.00;;;;;;5016518;28;21561;-62
2022/08/13 02:51:34;;;;;;;2.80;2.30;;;19.00;1.00;;;;;;5003057;28;20225;-62
2022/08/13 02:54:01;;;;;;;10.05;2.20;;;19.00;45.50;;;;;;5015250;28;20225;-62
2022/08/13 02:56:29;;;;;;;4.00;2.40;;;19.20;99.90;;;;;;4994633;28;20589;-62
2022/08/13 02:58:57;;;;;;;3.45;2.40;;;19.00;99.90;;;;;;5014743;28;20209;-63
2022/08/13 03:01:26;;;;;;;4.65;2.50;;;16.30;99.90;;;;;;5013377;28;20194;-62
2022/08/13 03:03:53;;;;;;;4.85;2.28;;;18.90;99.90;;;;;;5013965;28;20221;-62
2022/08/13 03:06:20;;;;;;;4.22;2.30;;;18.90;99.90;;;;;;5013888;28;20543;-62
2022/08/13 03:08:49;;;;;;;4.47;2.40;;;19.00;99.90;;;;;;5002962;28;20210;-62
2022/08/13 03:11:16;;;;;;;2.83;2.22;;;18.80;99.90;;;;;;5013275;28;20288;-61
2022/08/13 03:13:48;;;;;;;2.22;2.00;;;18.70;99.90;;;;;;4999591;28;20403;-62
2022/08/13 03:16:18;;;;;;;4.63;2.30;;;18.80;99.90;;;;;;5015744;28;20193;-62
2022/08/13 03:18:47;;;;;;;4.78;1.90;;;18.80;99.90;;;;;;5011668;28;20222;-62
2022/08/13 03:21:18;;;;;;;2.33;2.15;;;18.70;99.90;;;;;;5015415;28;20675;-63
2022/08/13 03:23:46;;;;;;;2.65;2.08;;;18.60;99.90;;;;;;5004156;28;20542;-62
2022/08/13 03:26:13;;;;;;;4.45;2.15;;;18.60;99.90;;;;;;5014386;28;20674;-62
2022/08/13 03:28:40;;;;;;;2.90;2.60;;;18.70;99.90;;;;;;4991107;28;20435;-62
2022/08/13 03:31:08;;;;;;;2.92;1.95;;;18.50;99.90;;;;;;5011917;28;21034;-62
2022/08/13 03:33:35;;;;;;;2.88;2.35;;;18.50;99.90;;;;;;5010524;28;20288;-63
2022/08/13 03:36:04;;;;;;;6.68;2.20;;;18.50;1.00;;;;;;5015766;28;20202;-64
2022/08/13 03:38:31;;;;;;;6.10;2.40;;;18.50;99.90;;;;;;5011909;28;20195;-62
2022/08/13 03:41:11;;;;;;;3.22;2.10;;;18.50;99.90;;;;;;5005774;28;20572;-62
2022/08/13 03:43:43;;;;;;;4.32;2.25;;;18.50;99.90;;;;;;4991076;28;20548;-63
2022/08/13 03:46:12;;;;;;;4.97;2.10;;;18.40;99.90;;;;;;5008200;28;20223;-63
2022/08/13 03:48:39;;;;;;;2.72;2.15;;;18.40;99.90;;;;;;5010826;28;20198;-63
2022/08/13 03:51:08;;;;;;;3.83;2.08;;;18.40;1.00;;;;;;5011966;28;20234;-62
2022/08/13 03:53:37;;;;;;;2.50;2.30;;;18.60;1.00;;;;;;5010989;28;20409;-63
2022/08/13 03:56:05;;;;;;;3.60;2.03;;;18.40;1.00;;;;;;5004174;28;20377;-62
2022/08/13 03:58:33;;;;;;;5.32;2.60;;;18.40;1.00;;;;;;4991285;28;20248;-63
2022/08/13 04:01:01;;;;;;;3.97;2.22;;;18.40;1.00;;;;;;5014368;28;20194;-62
2022/08/13 04:03:30;;;;;;;3.80;2.53;;;18.50;99.90;;;;;;5012364;28;20205;-62
2022/08/13 04:05:59;;;;;;;4.97;2.20;;;18.20;99.90;;;;;;5011292;28;20553;-63
2022/08/13 04:08:34;;;;;;;4.18;2.25;;;18.20;1.00;;;;;;5013419;28;20558;-62
2022/08/13 04:11:03;;;;;;;3.10;2.28;;;18.20;1.00;;;;;;5002104;28;20256;-62
2022/08/13 04:13:36;;;;;;;2.33;2.13;;;17.90;1.00;;;;;;4995213;28;20200;-62
2022/08/13 04:16:07;;;;;;;3.55;2.78;;;18.10;1.00;;;;;;5011832;28;20716;-62
2022/08/13 04:18:35;;;;;;;7.57;2.40;;;18.10;1.00;;;;;;5007912;28;20227;-62
2022/08/13 04:21:03;;;;;;;6.18;2.53;;;18.00;1.00;;;;;;5012886;28;20386;-62
2022/08/13 04:23:33;;;;;;;2.30;2.10;;;18.10;1.00;;;;;;5008091;28;20190;-62
2022/08/13 04:26:00;;;;;;;3.97;2.33;;;;;;;;;;5013733;28;20233;-61
2022/08/13 04:28:27;;;;;;;5.30;2.33;;;18.40;1.00;;;;;;4991020;28;20217;-62
2022/08/13 04:30:54;;;;;;;3.78;2.40;;;18.10;1.00;;;;;;5004242;28;20226;-63
2022/08/13 04:33:21;;;;;;;6.13;2.08;;;18.10;1.00;;;;;;5010341;28;20197;-61
2022/08/13 04:35:48;;;;;;;3.45;2.35;;;18.10;1.00;;;;;;5013356;28;20202;-63
2022/08/13 04:38:16;;;;;;;7.53;2.78;;;18.10;1.00;;;;;;5015771;28;20205;-62
2022/08/13 04:40:47;;;;;;;3.20;2.75;;;18.10;1.00;;;;;;5010975;28;20394;-62
2022/08/13 04:43:15;;;;;;;5.53;2.50;;;17.90;1.00;;;;;;5004409;28;20202;-62
2022/08/13 04:45:42;;;;;;;7.35;2.95;;;18.10;1.00;;;;;;4994609;28;20229;-62
2022/08/13 04:48:12;;;;;;;5.80;2.47;;;18.00;1.00;;;;;;5013732;28;20570;-62
2022/08/13 04:50:40;;;;;;;4.85;2.65;;;18.10;1.00;;;;;;5008922;28;20419;-63
2022/08/13 04:53:10;;;;;;;3.30;2.33;;;18.10;1.00;;;;;;5014943;28;20209;-62
2022/08/13 04:55:38;;;;;;;6.05;2.28;;;18.10;1.00;;;;;;5011609;28;20396;-62
2022/08/13 04:58:08;;;;;;;3.88;2.40;;;18.10;1.00;;;;;;5003945;28;20213;-62
2022/08/13 05:00:35;;;;;;;3.47;2.20;;;18.10;1.00;;;;;;4987615;28;20221;-62
2022/08/13 05:03:09;;;;;;;6.43;2.47;;;18.10;99.90;;;;;;5014616;28;20194;-62
2022/08/13 05:05:36;;;;;;;3.95;2.70;;;18.10;99.90;;;;;;5010942;28;20361;-63
2022/08/13 05:08:04;;;;;;;6.93;2.38;;;18.20;99.90;;;;;;5014130;28;20290;-62
2022/08/13 05:10:32;;;;;;;3.38;2.45;;;18.20;1.00;;;;;;5010861;28;20194;-61
2022/08/13 05:13:01;;;;;;;2.55;2.35;;;18.20;1.00;;;;;;5013659;28;20644;-63
2022/08/13 05:15:29;;;;;;;3.28;2.40;;;18.30;1.00;;;;;;4989495;28;20206;-62
2022/08/13 05:17:56;;;;;;;2.97;2.40;;;18.30;1.00;;;;;;5007712;28;20433;-62
2022/08/13 05:20:24;;;;;;;4.35;2.40;;;18.40;99.90;;;;;;5009883;28;20198;-61
2022/08/13 05:22:51;;;;;;;7.32;2.60;;;18.50;99.90;;;;;;5012504;28;20318;-62
2022/08/13 05:25:18;;;;;;;5.78;2.70;;;18.40;99.90;;;;;;5011807;28;20206;-61
2022/08/13 05:27:45;;;;;;;4.50;2.80;;;18.40;1.00;;;;;;5009451;28;20623;-62
2022/08/13 05:30:13;;;;;;;3.72;2.70;;;18.50;1.00;;;;;;4995775;28;20565;-61
2022/08/13 05:32:41;;;;;;;4.82;2.78;;;18.50;1.00;;;;;;5001014;28;20438;-62
2022/08/13 05:35:11;;;;;;;2.65;2.08;;;18.60;1.00;;;;;;5004636;28;20205;-63
2022/08/13 05:37:38;;;;;;;6.13;2.55;;;18.70;1.00;;;;;;5014931;28;20736;-63
2022/08/13 05:40:06;;;;;;;2.92;2.53;;;18.70;1.00;;;;;;5016931;28;20207;-62
2022/08/13 05:42:39;;;;;;;6.45;2.50;;;18.70;1.00;;;;;;5012828;28;20369;-62
2022/08/13 05:45:07;;;;;;;6.85;2.70;;;18.80;1.00;;;;;;5013770;28;20565;-63
2022/08/13 05:47:35;;;;;;;3.70;2.45;;;18.80;1.00;;;;;;4998404;28;20443;-63
2022/08/13 05:50:07;;;;;;;3.00;2.65;;;18.90;1.00;;;;;;5017396;28;20194;-63
2022/08/13 05:52:34;;;;;;;3.05;2.30;;;;;;;;;;5004724;28;20313;-64
2022/08/13 05:55:01;;;;;;;6.30;2.30;;;19.00;1.00;;;;;;5009437;28;20629;-63
2022/08/13 05:57:28;;;;;;;3.83;2.50;;;19.00;1.00;;;;;;5013667;28;20198;-62
2022/08/13 06:05:22;;;;;;;6.50;2.35;;;19.30;99.90;;;;;;5013990;28;20205;-61
2022/08/13 06:07:49;;;;;;;4.63;2.28;;;19.10;99.90;;;;;;5015791;28;20272;-62
2022/08/13 06:10:16;;;;;;;4.03;2.08;;;19.30;99.90;;;;;;5014015;28;20198;-62
2022/08/13 06:12:43;;;;;;;2.63;2.25;;;;;;;;;;5014859;28;20336;-62
2022/08/13 06:15:11;;;;;;;5.43;2.22;;;19.40;99.90;;;;;;5016823;28;20194;-62
2022/08/13 06:17:38;;;;;;;3.97;2.28;;;19.50;99.90;;;;;;4992114;28;20423;-62
2022/08/13 06:20:07;;;;;;;2.72;2.42;;;19.60;99.90;;;;;;5017030;28;20198;-63
2022/08/13 06:22:35;;;;;;;4.80;2.20;;;19.70;1.00;;;;;;5012708;28;20710;-62
2022/08/13 06:25:06;;;;;;;2.22;2.00;;;19.80;1.00;;;;;;5015883;28;21064;-63
2022/08/13 06:27:33;;;;;;;7.60;2.63;;;19.80;1.00;;;;;;5012943;28;20202;-63
2022/08/13 06:30:01;;;;;;;2.50;2.30;;;19.90;1.00;;;;;;5008838;28;20626;-63
2022/08/13 06:32:31;;;;;;;6.47;2.10;;;19.60;99.90;;;;;;4992134;28;20261;-62
2022/08/13 06:34:59;;;;;;;6.70;2.40;;;20.00;99.90;;;;;;5007854;28;20214;-63
2022/08/13 06:37:26;;;;;;;8.23;2.40;;;20.10;99.90;;;;;;5012400;28;20201;-62
2022/08/13 06:39:57;;;;;;;2.33;2.08;;;20.20;99.90;;;;;;5015962;28;20289;-63
2022/08/13 06:42:25;;;;;;;3.45;2.35;;;20.20;99.90;;;;;;5010096;28;20205;-63
2022/08/13 06:44:53;;;;;;;5.55;2.10;;;20.30;99.90;;;;;;5017303;28;20242;-62
2022/08/13 06:47:22;;;;;;;3.25;2.30;;;20.40;99.90;;;;;;5013297;28;20268;-61
2022/08/13 06:49:49;;;;;;;2.70;1.70;;;20.50;69.60;;;;;;4996043;28;20576;-62
2022/08/13 06:52:16;;;;;;;4.78;1.80;;;20.50;34.90;;;;;;5014127;28;20226;-63
2022/08/13 06:54:43;;;;;;;2.45;2.13;;;20.50;11.90;;;;;;5013878;28;20876;-62
2022/08/13 06:57:11;;;;;;;4.47;1.73;;;20.60;1.00;;;;;;5014955;28;20240;-61
2022/08/13 06:59:39;;;;;;;2.70;2.15;;;20.60;1.00;;;;;;5002285;28;20423;-61
2022/08/13 07:02:08;;;;;;;2.53;2.00;;;20.70;1.00;;;;;;5016825;28;20198;-63
2022/08/13 07:04:35;;;;;;;6.25;2.13;;;20.80;1.00;;;;;;4994501;28;20677;-62
2022/08/13 07:07:04;;;;;;;5.13;2.17;;;20.80;1.00;;;;;;5007359;28;20619;-63
2022/08/13 07:09:33;;;;;;;5.30;2.58;;;20.80;1.00;;;;;;5009695;28;20216;-62
2022/08/13 07:12:00;;;;;;;2.47;2.03;;;20.90;1.00;;;;;;5015219;28;20235;-62
2022/08/13 07:14:29;;;;;;;4.07;2.10;;;21.00;1.00;;;;;;5006052;28;20199;-62
2022/08/13 07:16:56;;;;;;;2.30;2.05;;;21.10;1.00;;;;;;5016089;28;20268;-62
2022/08/13 07:19:23;;;;;;;3.45;1.95;;;21.20;1.00;;;;;;5000019;28;20506;-63
2022/08/13 07:21:50;;;;;;;1.83;1.73;;;21.20;1.00;;;;;;4987789;28;20194;-62
2022/08/13 07:24:18;;;;;;;1.77;1.67;;;21.30;1.00;;;;;;5011456;28;20220;-61
2022/08/13 07:26:45;;;;;;;1.90;1.75;;;21.50;1.00;;;;;;5013094;28;20419;-62
2022/08/13 07:29:12;;;;;;;2.33;2.13;;;21.40;1.00;;;;;;5011277;28;20194;-62
2022/08/13 07:31:40;;;;;;;7.45;2.00;;;21.50;1.00;;;;;;5013853;28;20220;-61
2022/08/13 07:34:09;;;;;;;5.22;1.70;;;21.50;1.00;;;;;;5011467;28;20470;-61
2022/08/13 07:36:38;;;;;;;2.10;1.85;;;21.70;1.00;;;;;;4988067;28;20240;-61
2022/08/13 07:39:08;;;;;;;2.75;1.92;;;21.80;1.00;;;;;;5012059;28;20225;-61
2022/08/13 07:41:40;;;;;;;3.55;1.80;;;21.70;1.00;;;;;;5015151;28;20198;-60
2022/08/13 07:44:08;;;;;;;2.55;1.88;;;;;;;;;;5011311;28;20202;-61
2022/08/13 07:46:42;;;;;;;6.72;1.90;;;21.90;1.00;;;;;;5013011;28;20345;-61
2022/08/13 07:49:12;;;;;;;5.40;1.80;;;22.00;1.00;;;;;;5010488;28;20233;-61
2022/08/13 07:51:41;;;;;;;6.82;2.03;;;22.00;1.00;;;;;;4993894;28;20301;-61
2022/08/13 07:54:08;;;;;;;3.33;2.00;;;22.10;1.00;;;;;;5007357;28;20199;-61
2022/08/13 07:56:35;;;;;;;3.60;2.08;;;22.30;99.90;;;;;;5015861;28;20309;-61
2022/08/13 07:59:04;;;;;;;3.80;1.80;;;22.40;99.90;;;;;;5009956;28;20198;-61
2022/08/13 08:01:33;;;;;;;2.10;1.90;;;22.40;99.90;;;;;;5014316;28;20202;-60
2022/08/13 08:04:05;;;;;;;2.10;1.90;;;22.60;99.90;;;;;;5010095;28;20570;-61
2022/08/13 08:06:34;;;;;;;4.47;1.70;;;22.70;99.90;;;;;;4990055;28;20233;-61
2022/08/13 08:09:01;;;;;;;1.85;1.75;;;22.60;99.90;;;;;;5013102;28;20742;-61
2022/08/13 08:14:15;;;;;;;2.03;1.70;;;22.90;99.90;;;;;;5010041;28;20458;-61
2022/08/13 08:16:44;;;;;;;1.75;1.60;;;23.60;99.90;;;;;;5013519;28;20738;-61
2022/08/13 08:19:15;;;;;;;6.78;1.95;;;23.30;99.90;;;;;;5008531;28;20363;-61
2022/08/13 08:21:44;;;;;;;3.78;1.73;;;23.30;99.90;;;;;;5010804;28;20592;-61
2022/08/13 08:24:13;;;;;;;5.05;1.90;;;22.70;99.90;;;;;;4990250;28;20769;-61
2022/08/13 08:26:41;;;;;;;2.47;1.60;;;23.40;99.90;;;;;;5012177;28;20344;-61
2022/08/13 08:29:09;;;;;;;3.40;2.10;;;23.40;99.90;;;;;;5008472;28;20220;-61
2022/08/13 08:31:40;;;;;;;2.53;1.63;;;23.40;99.30;;;;;;5011218;28;20297;-61
2022/08/13 08:34:08;;;;;;;3.30;1.60;;;23.60;56.20;;;;;;5007404;28;20307;-60
2022/08/13 08:36:39;;;;;;;10.23;1.90;;;23.70;50.30;;;;;;5016337;28;20198;-61
2022/08/13 08:44:41;;;;;;;2.35;1.60;;;23.80;25.00;;;;;;5012251;28;20205;-61
2022/08/13 08:47:08;;;;;;;3.88;1.70;;;23.90;32.50;;;;;;5006748;28;20215;-61
2022/08/13 08:49:36;;;;;;;2.78;1.60;;;24.00;45.60;;;;;;5013073;28;20196;-61
2022/08/13 08:52:04;;;;;;;2.30;1.63;;;23.70;59.30;;;;;;4994847;28;20228;-61
2022/08/13 08:54:33;;;;;;;3.35;1.88;;;23.90;26.30;;;;;;5006636;28;20227;-61
2022/08/13 08:57:01;;;;;;;1.70;1.60;;;24.20;5.00;;;;;;5010313;28;20412;-61
2022/08/13 08:59:30;;;;;;;2.00;1.60;;;24.10;1.00;;;;;;5007608;28;20228;-61
2022/08/13 09:01:57;;;;;;;1.45;1.35;;;24.10;1.00;;;;;;5011130;28;20439;-60
2022/08/13 09:04:28;;;;;;;1.55;1.45;;;24.20;1.00;;;;;;5011289;28;20399;-61
2022/08/13 09:06:57;;;;;;;1.77;1.40;;;24.10;1.00;;;;;;5011366;28;20202;-61
2022/08/13 09:09:24;;;;;;;2.03;1.65;;;24.30;1.00;;;;;;4992320;28;20308;-61
2022/08/13 09:11:56;;;;;;;2.05;1.80;;;24.30;1.00;;;;;;5011888;28;20685;-60
2022/08/13 09:14:26;;;;;;;2.08;1.70;;;24.40;1.00;;;;;;5011466;28;20223;-61
2022/08/13 09:16:55;;;;;;;1.77;1.60;;;24.60;1.00;;;;;;5013281;28;20202;-61
2022/08/13 09:19:23;;;;;;;1.90;1.70;;;24.60;1.00;;;;;;5011557;28;20204;-61
2022/08/13 09:21:51;;;;;;;8.15;1.83;;;24.60;1.00;;;;;;5011797;28;20229;-61
2022/08/13 09:24:24;;;;;;;3.80;1.58;;;24.70;1.00;;;;;;4990248;28;20301;-61
2022/08/13 09:26:53;;;;;;;4.63;1.85;;;25.10;1.00;;;;;;5013413;28;20566;-60
2022/08/13 09:29:22;;;;;;;4.10;1.70;;;25.20;1.00;;;;;;5000985;28;20322;-61
2022/08/13 09:31:50;;;;;;;2.08;1.63;;;25.30;1.00;;;;;;5009766;28;20202;-61
2022/08/13 09:34:18;;;;;;;1.73;1.52;;;25.40;1.00;;;;;;4998505;28;20226;-61
2022/08/13 09:36:46;;;;;;;2.72;1.58;;;25.40;1.00;;;;;;5012491;28;20197;-61
2022/08/13 09:39:27;;;;;;;3.38;1.92;;;25.40;1.00;;;;;;4987959;28;20544;-61
2022/08/13 09:41:56;;;;;;;3.45;1.80;;;25.70;1.00;;;;;;5011691;28;20205;-61
2022/08/13 09:44:26;;;;;;;1.90;1.80;;;25.70;1.00;;;;;;5014082;28;20409;-61
2022/08/13 09:46:53;;;;;;;3.33;1.73;;;;;;;;;;5012279;28;20222;-61
2022/08/13 09:49:21;;;;;;;7.85;1.90;;;26.40;1.00;;;;;;5011080;28;20395;-61
2022/08/13 09:51:48;;;;;;;2.67;1.50;;;25.90;1.00;;;;;;5010960;28;20691;-61
2022/08/13 09:54:16;;;;;;;2.22;1.70;;;25.80;1.00;;;;;;5008544;28;20450;-61
2022/08/13 09:56:47;;;;;;;4.10;1.95;;;25.80;1.00;;;;;;4992375;28;20253;-61
2022/08/13 09:59:15;;;;;;;3.03;1.95;;;26.00;1.00;;;;;;5004166;28;20430;-61
2022/08/13 10:01:42;;;;;;;3.35;2.10;;;26.30;1.00;;;;;;5012486;28;20281;-61
2022/08/13 10:04:12;;;;;;;5.97;1.83;;;26.30;1.00;;;;;;5001613;28;20198;-61
2022/08/13 10:06:39;;;;;;;2.45;1.90;;;26.30;1.00;;;;;;5011027;28;20264;-61
2022/08/13 10:09:05;;;;;;;2.13;1.90;;;26.30;1.00;;;;;;5010311;28;20501;-61
2022/08/13 10:11:32;;;;;;;3.20;2.20;;;26.50;1.00;;;;;;4989496;28;20731;-61
2022/08/13 10:13:59;;;;;;;1.75;1.65;;;26.50;1.00;;;;;;5010357;28;20597;-61
2022/08/13 10:16:27;;;;;;;5.50;2.10;;;26.50;1.00;;;;;;5011755;28;20631;-61
2022/08/13 10:18:55;;;;;;;2.92;2.10;;;26.50;1.00;;;;;;5010477;28;20226;-61
2022/08/13 10:21:22;;;;;;;6.75;2.10;;;26.50;1.00;;;;;;5005492;28;20403;-61
2022/08/13 10:23:49;;;;;;;3.70;1.92;;;26.70;1.00;;;;;;5014372;28;20203;-61
2022/08/13 10:26:18;;;;;;;3.17;2.00;;;26.70;1.00;;;;;;4993772;28;20210;-61
2022/08/13 10:28:48;;;;;;;3.03;2.00;;;27.00;1.00;;;;;;5015928;28;20988;-61
2022/08/13 10:31:15;;;;;;;1.90;1.80;;;27.00;1.00;;;;;;5011476;28;20825;-61
2022/08/13 10:33:43;;;;;;;2.20;2.00;;;26.90;1.00;;;;;;5015405;28;20242;-61
2022/08/13 10:36:12;;;;;;;2.70;2.40;;;26.90;1.00;;;;;;5002150;28;20594;-61
2022/08/13 10:38:38;;;;;;;2.80;1.92;;;26.90;1.00;;;;;;5014675;28;20202;-61
2022/08/13 10:41:07;;;;;;;4.57;2.28;;;27.00;1.00;;;;;;5011687;28;20201;-61
2022/08/13 10:43:38;;;;;;;2.08;1.98;;;27.00;1.00;;;;;;4997691;28;20239;-61
2022/08/13 10:46:06;;;;;;;2.33;2.05;;;27.00;1.00;;;;;;5012823;28;20611;-61
2022/08/13 10:48:33;;;;;;;2.80;2.10;;;27.00;1.00;;;;;;5014536;28;20600;-61
2022/08/13 10:51:02;;;;;;;2.65;1.90;;;26.90;1.00;;;;;;5012787;28;20190;-61
2022/08/13 10:56:13;;;;;;;1.90;1.80;;;27.00;1.00;;;;;;5007431;28;20205;-61
2022/08/13 10:58:41;;;;;;;4.90;1.70;;;26.70;1.00;;;;;;4991158;28;20225;-61
2022/08/13 11:01:08;;;;;;;2.83;2.10;;;26.90;1.00;;;;;;5010734;28;20206;-61
2022/08/13 11:03:35;;;;;;;4.47;2.10;;;26.80;1.00;;;;;;5012821;28;20697;-61
2022/08/13 11:06:05;;;;;;;2.10;2.00;;;26.80;1.00;;;;;;5006116;28;20202;-61
2022/08/13 11:08:35;;;;;;;2.13;1.95;;;26.80;1.00;;;;;;5015346;28;20198;-61
2022/08/13 11:11:01;;;;;;;1.90;1.80;;;26.90;1.00;;;;;;5013439;28;20197;-61
2022/08/13 11:13:28;;;;;;;3.92;1.90;;;27.10;1.00;;;;;;4995652;28;21435;-61
2022/08/13 11:15:56;;;;;;;2.30;2.10;;;27.10;1.00;;;;;;5014668;28;20222;-61
2022/08/13 11:18:22;;;;;;;2.53;1.95;;;27.00;1.00;;;;;;5009797;28;21034;-61
2022/08/13 11:21:03;;;;;;;7.47;2.40;;;27.00;1.00;;;;;;4998949;28;20204;-61
2022/08/13 11:23:31;;;;;;;2.33;2.13;;;27.10;1.00;;;;;;5014127;28;20205;-61
2022/08/13 11:25:58;;;;;;;4.63;1.88;;;27.10;1.00;;;;;;5010352;28;20216;-61
2022/08/13 11:28:25;;;;;;;4.15;2.25;;;;;;;;;;4994250;28;20308;-61
2022/08/13 11:30:53;;;;;;;2.28;1.90;;;27.10;1.00;;;;;;5013154;28;20198;-61
2022/08/13 11:33:22;;;;;;;2.10;1.90;;;27.10;1.00;;;;;;5012068;28;20217;-61
2022/08/13 11:35:49;;;;;;;2.13;2.03;;;27.00;1.00;;;;;;5012093;28;20202;-61
2022/08/13 11:38:17;;;;;;;2.80;2.45;;;27.00;1.00;;;;;;5002286;28;20297;-61
2022/08/13 11:40:48;;;;;;;6.30;2.30;;;27.10;1.00;;;;;;5015665;28;20198;-61
2022/08/13 11:43:15;;;;;;;3.90;2.05;;;27.20;1.00;;;;;;5012376;28;20376;-61
2022/08/13 11:45:42;;;;;;;2.83;1.90;;;27.30;1.00;;;;;;4996719;28;20218;-61
2022/08/13 11:48:09;;;;;;;2.35;2.03;;;27.80;1.00;;;;;;5011850;28;20289;-61
2022/08/13 11:50:36;;;;;;;2.92;2.13;;;27.70;1.00;;;;;;5014709;28;20210;-61
2022/08/13 11:53:03;;;;;;;3.75;2.28;;;27.70;1.00;;;;;;5009659;28;20240;-61
2022/08/13 11:55:30;;;;;;;2.40;2.20;;;27.60;1.00;;;;;;5015561;28;20487;-61
2022/08/13 11:58:02;;;;;;;8.70;2.40;;;27.60;1.00;;;;;;5013811;28;20429;-61
2022/08/13 12:00:29;;;;;;;2.28;2.17;;;27.60;1.00;;;;;;4993542;28;20300;-61
2022/08/13 12:02:56;;;;;;;2.33;2.13;;;27.50;1.00;;;;;;5013285;28;20195;-61
2022/08/13 12:05:23;;;;;;;2.67;2.20;;;27.60;1.00;;;;;;5012252;28;20630;-61
2022/08/13 12:07:49;;;;;;;4.22;2.72;;;27.90;1.00;;;;;;5011988;28;20210;-61
2022/08/13 12:10:17;;;;;;;5.35;2.38;;;27.80;1.00;;;;;;5009232;28;20932;-61
2022/08/13 12:12:45;;;;;;;7.32;2.30;;;27.90;1.00;;;;;;5015413;28;20206;-61
2022/08/13 12:15:13;;;;;;;5.45;2.05;;;27.80;1.00;;;;;;4991834;28;21070;-62
2022/08/13 12:17:42;;;;;;;2.28;2.13;;;27.80;1.00;;;;;;5013711;28;20599;-61
2022/08/13 12:20:11;;;;;;;4.32;2.10;;;27.70;1.00;;;;;;5007667;28;20206;-61
2022/08/13 12:22:39;;;;;;;5.22;2.58;;;27.60;1.00;;;;;;5012541;28;20788;-61
2022/08/13 12:25:07;;;;;;;5.20;2.20;;;27.50;1.00;;;;;;5001211;28;20202;-62
2022/08/13 12:27:34;;;;;;;4.88;2.53;;;27.30;1.00;;;;;;5015392;28;20221;-61
2022/08/13 12:30:01;;;;;;;4.30;2.33;;;27.30;1.00;;;;;;5008719;28;20198;-61
2022/08/13 12:32:29;;;;;;;2.42;2.22;;;27.30;1.00;;;;;;4992749;28;20210;-61
2022/08/13 12:34:56;;;;;;;4.10;2.25;;;27.40;1.00;;;;;;5013398;28;20233;-61
2022/08/13 12:37:23;;;;;;;2.40;2.20;;;;;;;;;;5009612;28;20228;-61
2022/08/13 12:39:50;;;;;;;7.32;2.63;;;27.70;1.00;;;;;;5005757;28;20810;-61
2022/08/13 12:42:17;;;;;;;2.40;2.20;;;27.80;1.00;;;;;;5010839;28;20421;-61
2022/08/13 12:44:44;;;;;;;2.42;2.17;;;27.70;1.00;;;;;;5015037;28;20194;-61
2022/08/13 12:47:11;;;;;;;2.85;2.40;;;27.70;1.00;;;;;;4990586;28;20730;-61
2022/08/13 12:49:39;;;;;;;4.88;2.58;;;27.70;1.00;;;;;;5014929;28;20594;-61
2022/08/13 12:52:06;;;;;;;7.57;2.60;;;27.60;1.00;;;;;;5011836;28;20197;-61
2022/08/13 12:54:33;;;;;;;2.40;2.20;;;;;;;;;;5003744;28;20683;-61
2022/08/13 12:57:00;;;;;;;2.40;2.20;;;27.40;1.00;;;;;;5007012;28;20194;-61
2022/08/13 12:59:27;;;;;;;2.80;2.60;;;27.40;1.00;;;;;;5011380;28;20198;-61
2022/08/13 13:01:53;;;;;;;3.08;2.58;;;27.40;1.00;;;;;;5011246;28;20667;-61
2022/08/13 13:04:22;;;;;;;4.97;2.80;;;27.50;1.00;;;;;;4990025;28;20209;-61
2022/08/13 13:06:51;;;;;;;2.90;2.53;;;27.40;1.00;;;;;;5012819;28;20591;-61
2022/08/13 13:09:18;;;;;;;8.00;2.58;;;27.40;1.00;;;;;;5010379;28;20383;-61
2022/08/13 13:11:46;;;;;;;12.60;3.25;;;27.40;1.00;;;;;;5013386;28;20617;-61
2022/08/13 13:14:13;;;;;;;8.55;2.92;;;27.40;1.00;;;;;;5009060;28;20257;-61
2022/08/13 13:16:40;;;;;;;3.05;2.53;;;27.40;1.00;;;;;;5012916;28;20209;-61
2022/08/13 13:19:10;;;;;;;4.57;2.50;;;27.40;1.00;;;;;;4988263;28;20251;-61
2022/08/13 13:21:38;;;;;;;3.38;2.55;;;27.50;1.00;;;;;;5012651;28;20622;-61
2022/08/13 13:24:08;;;;;;;2.97;2.42;;;27.50;1.00;;;;;;5009595;28;20202;-61
2022/08/13 13:26:34;;;;;;;3.47;2.35;;;27.60;1.00;;;;;;5012080;28;20218;-61